createdAt,value
2023-04-22T00:00:02.053Z,11.4
2023-04-22T00:01:02.131Z,11.3
2023-04-22T00:02:01.677Z,11.4
2023-04-22T00:03:01.783Z,11.6
2023-04-22T00:04:02.354Z,11.5
2023-04-22T00:05:02.377Z,11.4
2023-04-22T00:06:02.093Z,11.6
2023-04-22T00:07:02.075Z,11.4
2023-04-22T00:08:01.918Z,11.5
2023-04-22T00:09:01.845Z,11.4
2023-04-22T00:10:01.863Z,11.5
2023-04-22T00:11:01.718Z,11.4
2023-04-22T00:12:01.779Z,11.6
2023-04-22T00:13:01.628Z,11.6
2023-04-22T00:14:01.697Z,11.7
2023-04-22T00:15:01.564Z,11.8
2023-04-22T00:16:01.620Z,11.8
2023-04-22T00:17:01.256Z,11.5
2023-04-22T00:18:02.422Z,11.5
2023-04-22T00:19:01.316Z,11.4
2023-04-22T00:20:02.355Z,11.3
2023-04-22T00:21:02.330Z,11.3
2023-04-22T00:22:02.193Z,11.1
2023-04-22T00:23:02.132Z,11.3
2023-04-22T00:24:02.179Z,11.4
2023-04-22T00:25:02.056Z,11.5
2023-04-22T00:26:02.090Z,11.5
2023-04-22T00:27:01.995Z,11.5
2023-04-22T00:28:01.927Z,11.3
2023-04-22T00:29:01.975Z,11.4
2023-04-22T00:30:01.834Z,11.3
2023-04-22T00:31:01.770Z,11.2
2023-04-22T00:32:01.772Z,11.4
2023-04-22T00:33:01.871Z,11.5
2023-04-22T00:34:01.755Z,11.5
2023-04-22T00:35:01.707Z,11.5
2023-04-22T00:36:01.770Z,11.3
2023-04-22T00:37:01.613Z,11.4
2023-04-22T00:38:01.674Z,11.5
2023-04-22T00:39:01.522Z,11.5
2023-04-22T00:40:01.556Z,11.3
2023-04-22T00:41:01.372Z,11.2
2023-04-22T00:42:01.407Z,11
2023-04-22T00:43:01.308Z,11.1
2023-04-22T00:44:02.364Z,11
2023-04-22T00:45:02.227Z,11.1
2023-04-22T00:46:02.290Z,11
2023-04-22T00:47:01.923Z,11
2023-04-22T00:48:02.056Z,10.9
2023-04-22T00:49:01.890Z,10.9
2023-04-22T00:50:01.958Z,10.9
2023-04-22T00:51:01.846Z,10.9
2023-04-22T00:52:01.752Z,10.9
2023-04-22T00:53:01.809Z,11.1
2023-04-22T00:54:01.673Z,11.2
2023-04-22T00:55:01.644Z,11.2
2023-04-22T00:56:01.545Z,11.3
2023-04-22T00:57:01.577Z,11.1
2023-04-22T00:58:01.422Z,11
2023-04-22T00:59:01.500Z,10.9
2023-04-22T01:00:02.790Z,10.8
2023-04-22T01:01:01.707Z,10.8
2023-04-22T01:02:02.204Z,10.9
2023-04-22T01:03:02.406Z,10.9
2023-04-22T01:04:01.559Z,11.1
2023-04-22T01:05:01.880Z,10.9
2023-04-22T01:06:01.730Z,10.8
2023-04-22T01:07:01.783Z,11
2023-04-22T01:08:01.648Z,11
2023-04-22T01:09:01.711Z,10.8
2023-04-22T01:10:01.513Z,10.8
2023-04-22T01:11:01.563Z,10.9
2023-04-22T01:12:01.448Z,10.9
2023-04-22T01:13:01.439Z,10.9
2023-04-22T01:14:01.332Z,10.7
2023-04-22T01:15:03.046Z,10.6
2023-04-22T01:16:01.640Z,10.9
2023-04-22T01:17:01.378Z,10.9
2023-04-22T01:18:01.426Z,10.7
2023-04-22T01:19:01.311Z,10.6
2023-04-22T01:20:02.346Z,10.5
2023-04-22T01:21:02.218Z,10.5
2023-04-22T01:22:02.284Z,10.6
2023-04-22T01:23:02.159Z,10.6
2023-04-22T01:24:02.222Z,10.7
2023-04-22T01:25:02.091Z,10.6
2023-04-22T01:26:02.159Z,10.6
2023-04-22T01:27:02.071Z,10.4
2023-04-22T01:28:02.106Z,10.5
2023-04-22T01:29:01.946Z,10.3
2023-04-22T01:30:01.909Z,10.4
2023-04-22T01:31:01.901Z,10.4
2023-04-22T01:32:01.684Z,10.4
2023-04-22T01:33:01.743Z,10.6
2023-04-22T01:34:01.673Z,10.7
2023-04-22T01:35:01.653Z,10.4
2023-04-22T01:36:01.568Z,10.4
2023-04-22T01:37:01.565Z,10.4
2023-04-22T01:38:01.489Z,10.6
2023-04-22T01:39:01.470Z,10.7
2023-04-22T01:40:01.305Z,10.7
2023-04-22T01:41:02.385Z,10.6
2023-04-22T01:42:02.220Z,10.6
2023-04-22T01:43:02.267Z,10.6
2023-04-22T01:44:02.147Z,10.6
2023-04-22T01:45:02.195Z,10.7
2023-04-22T01:46:02.124Z,10.6
2023-04-22T01:47:02.027Z,10.6
2023-04-22T01:48:02.153Z,10.5
2023-04-22T01:49:02.031Z,10.6
2023-04-22T01:50:02.014Z,10.6
2023-04-22T01:51:02.017Z,10.5
2023-04-22T01:52:01.939Z,10.6
2023-04-22T01:53:01.850Z,10.8
2023-04-22T01:54:01.880Z,10.8
2023-04-22T01:55:01.771Z,10.9
2023-04-22T01:56:01.812Z,10.9
2023-04-22T01:57:01.675Z,10.9
2023-04-22T01:58:01.738Z,10.9
2023-04-22T01:59:01.630Z,11
2023-04-22T02:00:02.183Z,11
2023-04-22T02:01:02.053Z,10.9
2023-04-22T02:02:02.266Z,11
2023-04-22T02:03:02.378Z,11
2023-04-22T02:04:01.478Z,11
2023-04-22T02:05:01.495Z,11
2023-04-22T02:06:01.365Z,11
2023-04-22T02:07:01.423Z,11
2023-04-22T02:08:02.366Z,11
2023-04-22T02:09:02.281Z,11
2023-04-22T02:10:02.318Z,11
2023-04-22T02:11:02.162Z,11
2023-04-22T02:12:02.252Z,11
2023-04-22T02:13:02.164Z,11
2023-04-22T02:14:02.186Z,11
2023-04-22T02:15:02.087Z,11
2023-04-22T02:16:02.154Z,10.9
2023-04-22T02:17:01.782Z,10.9
2023-04-22T02:18:01.728Z,10.9
2023-04-22T02:19:01.782Z,10.9
2023-04-22T02:20:01.724Z,10.9
2023-04-22T02:21:01.643Z,10.9
2023-04-22T02:22:01.682Z,10.9
2023-04-22T02:23:01.561Z,10.9
2023-04-22T02:24:01.600Z,10.9
2023-04-22T02:25:01.430Z,10.9
2023-04-22T02:26:01.501Z,10.9
2023-04-22T02:27:01.362Z,10.8
2023-04-22T02:28:01.375Z,10.8
2023-04-22T02:29:02.344Z,10.8
2023-04-22T02:30:02.246Z,10.7
2023-04-22T02:31:02.372Z,10.7
2023-04-22T02:32:01.789Z,10.7
2023-04-22T02:33:01.805Z,10.7
2023-04-22T02:34:01.720Z,10.7
2023-04-22T02:35:01.768Z,10.6
2023-04-22T02:36:01.639Z,10.7
2023-04-22T02:37:01.706Z,10.6
2023-04-22T02:38:01.570Z,10.7
2023-04-22T02:39:01.620Z,10.6
2023-04-22T02:40:01.509Z,10.5
2023-04-22T02:41:01.544Z,10.5
2023-04-22T02:42:01.373Z,10.5
2023-04-22T02:43:01.416Z,10.5
2023-04-22T02:44:02.357Z,10.4
2023-04-22T02:45:02.271Z,10.4
2023-04-22T02:46:02.328Z,10.4
2023-04-22T02:47:02.087Z,10.4
2023-04-22T02:48:02.169Z,10.4
2023-04-22T02:49:02.119Z,10.4
2023-04-22T02:50:02.230Z,10.5
2023-04-22T02:51:02.086Z,10.4
2023-04-22T02:52:02.145Z,10.4
2023-04-22T02:53:02.058Z,10.4
2023-04-22T02:54:02.110Z,10.4
2023-04-22T02:55:02.006Z,10.4
2023-04-22T02:56:01.966Z,10.4
2023-04-22T02:57:02.001Z,10.3
2023-04-22T02:58:01.955Z,10.3
2023-04-22T02:59:01.905Z,10.3
2023-04-22T03:00:01.970Z,10.2
2023-04-22T03:01:01.875Z,10.2
2023-04-22T03:02:02.667Z,10.3
2023-04-22T03:03:01.672Z,10.3
2023-04-22T03:04:01.865Z,10.3
2023-04-22T03:05:01.470Z,10.3
2023-04-22T03:06:01.363Z,10.3
2023-04-22T03:07:01.280Z,10.2
2023-04-22T03:08:02.331Z,10.3
2023-04-22T03:09:02.227Z,10.2
2023-04-22T03:10:02.316Z,10.2
2023-04-22T03:11:02.198Z,10.2
2023-04-22T03:12:02.285Z,10.2
2023-04-22T03:13:02.177Z,10.2
2023-04-22T03:14:02.222Z,10.2
2023-04-22T03:15:02.205Z,10.2
2023-04-22T03:16:02.219Z,10.2
2023-04-22T03:17:02.317Z,10.1
2023-04-22T03:18:01.733Z,10.2
2023-04-22T03:19:01.772Z,10.2
2023-04-22T03:20:01.669Z,10.2
2023-04-22T03:21:01.669Z,10.2
2023-04-22T03:22:01.562Z,10.2
2023-04-22T03:23:01.573Z,10.2
2023-04-22T03:24:01.439Z,10.2
2023-04-22T03:25:01.443Z,10.1
2023-04-22T03:26:01.290Z,10.1
2023-04-22T03:27:02.322Z,10.1
2023-04-22T03:28:02.210Z,10.1
2023-04-22T03:29:02.314Z,10.1
2023-04-22T03:30:02.236Z,10.2
2023-04-22T03:31:02.262Z,10.2
2023-04-22T03:32:01.906Z,10.1
2023-04-22T03:33:01.929Z,10.2
2023-04-22T03:34:01.748Z,10.1
2023-04-22T03:35:01.784Z,10.1
2023-04-22T03:36:01.653Z,10.1
2023-04-22T03:37:01.711Z,10.1
2023-04-22T03:38:01.556Z,10.1
2023-04-22T03:39:01.624Z,10.1
2023-04-22T03:40:01.422Z,10.1
2023-04-22T03:41:01.474Z,10
2023-04-22T03:42:01.297Z,10
2023-04-22T03:43:02.366Z,10
2023-04-22T03:44:02.347Z,10.1
2023-04-22T03:45:01.283Z,10.1
2023-04-22T03:46:02.410Z,10.1
2023-04-22T03:47:02.035Z,10.1
2023-04-22T03:48:02.129Z,10.1
2023-04-22T03:49:02.136Z,10.1
2023-04-22T03:50:02.075Z,10.2
2023-04-22T03:51:01.921Z,10.1
2023-04-22T03:52:01.946Z,10.2
2023-04-22T03:53:01.839Z,10.1
2023-04-22T03:54:01.773Z,10.1
2023-04-22T03:55:01.837Z,10.1
2023-04-22T03:56:01.698Z,10.1
2023-04-22T03:57:01.738Z,10.1
2023-04-22T03:58:01.608Z,10
2023-04-22T03:59:01.661Z,9.9
2023-04-22T04:00:02.818Z,9.9
2023-04-22T04:01:01.681Z,10
2023-04-22T04:02:02.321Z,10
2023-04-22T04:03:01.681Z,9.9
2023-04-22T04:04:01.972Z,10
2023-04-22T04:05:01.999Z,10
2023-04-22T04:06:02.085Z,10.1
2023-04-22T04:07:02.084Z,10
2023-04-22T04:08:02.037Z,9.9
2023-04-22T04:09:02.092Z,9.9
2023-04-22T04:10:01.911Z,9.8
2023-04-22T04:11:01.864Z,9.8
2023-04-22T04:12:01.927Z,9.9
2023-04-22T04:13:01.793Z,9.9
2023-04-22T04:14:01.688Z,9.7
2023-04-22T04:15:01.749Z,9.7
2023-04-22T04:16:01.603Z,9.6
2023-04-22T04:17:01.891Z,9.5
2023-04-22T04:18:01.956Z,9.6
2023-04-22T04:19:01.797Z,9.5
2023-04-22T04:20:01.742Z,9.5
2023-04-22T04:21:01.486Z,9.5
2023-04-22T04:22:02.043Z,9.5
2023-04-22T04:23:01.908Z,9.4
2023-04-22T04:24:01.949Z,9.3
2023-04-22T04:25:01.791Z,9.4
2023-04-22T04:26:01.780Z,9.5
2023-04-22T04:27:01.789Z,9.4
2023-04-22T04:28:01.695Z,9.3
2023-04-22T04:29:01.734Z,9.2
2023-04-22T04:30:01.618Z,9.2
2023-04-22T04:31:01.624Z,9.2
2023-04-22T04:32:01.457Z,9.1
2023-04-22T04:33:01.465Z,9.2
2023-04-22T04:34:01.288Z,9.2
2023-04-22T04:35:02.384Z,9.2
2023-04-22T04:36:02.215Z,9.2
2023-04-22T04:37:02.272Z,9.3
2023-04-22T04:38:02.248Z,9.4
2023-04-22T04:39:02.187Z,9.4
2023-04-22T04:40:02.065Z,9.3
2023-04-22T04:41:02.123Z,9.3
2023-04-22T04:42:01.968Z,9.5
2023-04-22T04:43:01.949Z,9.4
2023-04-22T04:44:01.988Z,9.5
2023-04-22T04:45:01.847Z,9.5
2023-04-22T04:46:01.768Z,9.6
2023-04-22T04:47:01.801Z,9.6
2023-04-22T04:48:01.791Z,9.6
2023-04-22T04:49:01.652Z,9.8
2023-04-22T04:50:01.719Z,9.8
2023-04-22T04:51:01.571Z,9.9
2023-04-22T04:52:01.893Z,9.9
2023-04-22T04:53:01.664Z,9.8
2023-04-22T04:54:01.692Z,9.9
2023-04-22T04:55:01.513Z,9.9
2023-04-22T04:56:01.546Z,10
2023-04-22T04:57:01.398Z,10
2023-04-22T04:58:01.446Z,10
2023-04-22T04:59:01.285Z,10
2023-04-22T05:00:02.350Z,10.1
2023-04-22T05:01:02.371Z,10.2
2023-04-22T05:02:02.127Z,10.3
2023-04-22T05:03:02.242Z,10.4
2023-04-22T05:04:01.669Z,10.4
2023-04-22T05:05:02.155Z,10.4
2023-04-22T05:06:02.302Z,10.5
2023-04-22T05:07:02.214Z,10.6
2023-04-22T05:08:02.247Z,10.7
2023-04-22T05:09:02.093Z,10.7
2023-04-22T05:10:02.121Z,10.7
2023-04-22T05:11:02.016Z,10.9
2023-04-22T05:12:02.079Z,10.9
2023-04-22T05:13:04.066Z,11
2023-04-22T05:14:02.109Z,11
2023-04-22T05:15:02.112Z,11
2023-04-22T05:16:02.044Z,11.1
2023-04-22T05:17:02.073Z,11.1
2023-04-22T05:18:02.183Z,11.1
2023-04-22T05:19:02.064Z,11.1
2023-04-22T05:20:02.007Z,11.2
2023-04-22T05:21:02.048Z,11.3
2023-04-22T05:22:01.882Z,11.3
2023-04-22T05:23:01.833Z,11.4
2023-04-22T05:24:01.882Z,11.5
2023-04-22T05:25:01.742Z,11.4
2023-04-22T05:26:01.788Z,11.6
2023-04-22T05:27:01.646Z,11.7
2023-04-22T05:28:01.694Z,11.4
2023-04-22T05:29:01.547Z,11.5
2023-04-22T05:30:01.570Z,11.5
2023-04-22T05:31:01.438Z,11.6
2023-04-22T05:32:01.369Z,11.6
2023-04-22T05:33:01.399Z,11.7
2023-04-22T05:34:02.339Z,11.9
2023-04-22T05:35:02.250Z,11.7
2023-04-22T05:36:02.377Z,11.7
2023-04-22T05:37:02.260Z,11.8
2023-04-22T05:38:02.326Z,11.9
2023-04-22T05:39:02.198Z,11.9
2023-04-22T05:40:02.256Z,12
2023-04-22T05:41:02.200Z,11.9
2023-04-22T05:42:02.220Z,12.1
2023-04-22T05:43:02.095Z,12
2023-04-22T05:44:02.155Z,11.9
2023-04-22T05:45:02.026Z,11.8
2023-04-22T05:46:02.115Z,12
2023-04-22T05:47:01.961Z,12.2
2023-04-22T05:48:01.976Z,12.2
2023-04-22T05:49:01.954Z,12.3
2023-04-22T05:50:01.804Z,12.4
2023-04-22T05:51:01.743Z,12.3
2023-04-22T05:52:01.825Z,12.2
2023-04-22T05:53:01.674Z,12.2
2023-04-22T05:54:01.733Z,12.4
2023-04-22T05:55:01.547Z,12.2
2023-04-22T05:56:01.617Z,12.3
2023-04-22T05:57:01.494Z,12.5
2023-04-22T05:58:01.516Z,12.6
2023-04-22T05:59:01.398Z,12.8
2023-04-22T06:00:01.911Z,12.5
2023-04-22T06:01:01.722Z,12.5
2023-04-22T06:02:01.927Z,13.6
2023-04-22T06:03:02.224Z,13.2
2023-04-22T06:04:01.514Z,13
2023-04-22T06:05:02.414Z,13
2023-04-22T06:06:02.349Z,13.1
2023-04-22T06:07:01.492Z,14.4
2023-04-22T06:08:01.352Z,13.7
2023-04-22T06:09:01.400Z,13.6
2023-04-22T06:10:04.940Z,13.3
2023-04-22T06:11:01.402Z,13.3
2023-04-22T06:12:01.427Z,13.4
2023-04-22T06:13:02.396Z,13.4
2023-04-22T06:14:02.250Z,13.3
2023-04-22T06:15:02.390Z,13.4
2023-04-22T06:16:02.189Z,13.3
2023-04-22T06:17:02.288Z,13.3
2023-04-22T06:18:02.313Z,13.4
2023-04-22T06:19:02.235Z,13.6
2023-04-22T06:20:02.290Z,13.6
2023-04-22T06:21:02.222Z,13.6
2023-04-22T06:22:02.275Z,13.5
2023-04-22T06:23:02.159Z,13.5
2023-04-22T06:24:02.188Z,13.7
2023-04-22T06:25:02.044Z,13.6
2023-04-22T06:26:02.172Z,13.6
2023-04-22T06:27:02.057Z,13.8
2023-04-22T06:28:02.133Z,13.8
2023-04-22T06:29:02.009Z,13.7
2023-04-22T06:30:01.986Z,13.9
2023-04-22T06:31:02.051Z,14
2023-04-22T06:32:01.781Z,14.2
2023-04-22T06:33:01.927Z,14.2
2023-04-22T06:34:01.771Z,14.1
2023-04-22T06:35:01.865Z,14.2
2023-04-22T06:36:01.746Z,14.3
2023-04-22T06:37:01.778Z,14.3
2023-04-22T06:38:01.647Z,14.3
2023-04-22T06:39:01.706Z,14.4
2023-04-22T06:40:01.499Z,14.5
2023-04-22T06:41:01.525Z,14.5
2023-04-22T06:42:01.377Z,14.7
2023-04-22T06:43:01.426Z,14.7
2023-04-22T06:44:01.296Z,14.7
2023-04-22T06:45:02.316Z,14.7
2023-04-22T06:46:02.234Z,14.8
2023-04-22T06:47:02.209Z,14.9
2023-04-22T06:48:02.200Z,15
2023-04-22T06:49:02.121Z,15
2023-04-22T06:50:02.178Z,14.9
2023-04-22T06:51:02.041Z,14.8
2023-04-22T06:52:02.091Z,15
2023-04-22T06:53:01.962Z,15.1
2023-04-22T06:54:01.967Z,15.1
2023-04-22T06:55:02.016Z,15.3
2023-04-22T06:56:01.945Z,15.3
2023-04-22T06:57:01.908Z,15.3
2023-04-22T06:58:01.947Z,15.5
2023-04-22T06:59:01.802Z,15.5
2023-04-22T07:00:02.401Z,15.5
2023-04-22T07:01:01.435Z,15.4
2023-04-22T07:02:01.433Z,15.5
2023-04-22T07:03:01.494Z,15.5
2023-04-22T07:04:01.373Z,15.5
2023-04-22T07:05:01.420Z,15.5
2023-04-22T07:06:01.322Z,15.6
2023-04-22T07:07:02.366Z,15.9
2023-04-22T07:08:02.195Z,15.9
2023-04-22T07:09:02.299Z,15.9
2023-04-22T07:10:02.209Z,16
2023-04-22T07:11:02.220Z,16
2023-04-22T07:12:02.088Z,16
2023-04-22T07:13:02.127Z,16.2
2023-04-22T07:14:02.021Z,16.3
2023-04-22T07:15:02.081Z,16.1
2023-04-22T07:16:01.972Z,16.3
2023-04-22T07:17:01.759Z,16.4
2023-04-22T07:18:01.793Z,16.5
2023-04-22T07:19:01.662Z,16.7
2023-04-22T07:20:01.646Z,16.6
2023-04-22T07:21:01.471Z,16.6
2023-04-22T07:22:01.490Z,16.6
2023-04-22T07:23:01.357Z,16.5
2023-04-22T07:24:01.463Z,16.4
2023-04-22T07:25:01.279Z,16.7
2023-04-22T07:26:01.422Z,16.9
2023-04-22T07:27:01.330Z,16.8
2023-04-22T07:28:01.416Z,17
2023-04-22T07:29:02.388Z,17
2023-04-22T07:30:02.283Z,17
2023-04-22T07:31:02.334Z,17
2023-04-22T07:32:02.092Z,17.1
2023-04-22T07:33:02.108Z,17.1
2023-04-22T07:34:01.964Z,17.3
2023-04-22T07:35:01.917Z,17.4
2023-04-22T07:36:01.977Z,17.5
2023-04-22T07:37:01.825Z,17.3
2023-04-22T07:38:01.779Z,17.4
2023-04-22T07:39:01.851Z,17.6
2023-04-22T07:40:01.661Z,17.6
2023-04-22T07:41:01.734Z,17.8
2023-04-22T07:42:01.581Z,17.5
2023-04-22T07:43:01.609Z,17.6
2023-04-22T07:44:01.487Z,17.9
2023-04-22T07:45:01.563Z,17.8
2023-04-22T07:46:01.426Z,18
2023-04-22T07:47:01.297Z,18
2023-04-22T07:48:01.440Z,18.1
2023-04-22T07:49:02.344Z,18
2023-04-22T07:50:02.259Z,17.9
2023-04-22T07:51:02.285Z,18
2023-04-22T07:52:02.170Z,18.1
2023-04-22T07:53:02.236Z,18.1
2023-04-22T07:54:02.105Z,18.1
2023-04-22T07:55:02.129Z,18.3
2023-04-22T07:56:02.278Z,18.4
2023-04-22T07:57:02.094Z,18.3
2023-04-22T07:58:01.952Z,18.1
2023-04-22T07:59:01.909Z,18.3
2023-04-22T08:00:02.062Z,18.5
2023-04-22T08:01:01.929Z,18.6
2023-04-22T08:02:01.787Z,18.7
2023-04-22T08:03:01.851Z,18.7
2023-04-22T08:04:02.067Z,18.9
2023-04-22T08:05:01.649Z,18.9
2023-04-22T08:06:01.806Z,18.9
2023-04-22T08:07:01.948Z,18.8
2023-04-22T08:08:01.765Z,18.9
2023-04-22T08:09:01.801Z,18.9
2023-04-22T08:10:01.586Z,19.1
2023-04-22T08:11:01.610Z,19.1
2023-04-22T08:12:01.525Z,18.9
2023-04-22T08:13:01.632Z,19.1
2023-04-22T08:14:01.391Z,19.3
2023-04-22T08:15:01.432Z,19.2
2023-04-22T08:16:01.285Z,19.4
2023-04-22T08:17:01.524Z,19.4
2023-04-22T08:18:01.606Z,19.3
2023-04-22T08:19:01.439Z,19.5
2023-04-22T08:20:01.431Z,19.7
2023-04-22T08:21:01.332Z,19.7
2023-04-22T08:22:01.374Z,19.7
2023-04-22T08:23:01.281Z,19.9
2023-04-22T08:24:01.366Z,19.7
2023-04-22T08:25:02.326Z,19.7
2023-04-22T08:26:02.188Z,19.7
2023-04-22T08:27:02.284Z,19.6
2023-04-22T08:28:02.132Z,19.7
2023-04-22T08:29:02.185Z,19.8
2023-04-22T08:30:02.041Z,19.8
2023-04-22T08:31:02.108Z,19.5
2023-04-22T08:32:01.806Z,19.9
2023-04-22T08:33:01.801Z,20
2023-04-22T08:34:01.811Z,20.1
2023-04-22T08:36:02.378Z,20.2
2023-04-22T08:37:02.262Z,20.3
2023-04-22T08:38:02.211Z,20.5
2023-04-22T08:39:02.266Z,20.4
2023-04-22T08:40:02.177Z,20.5
2023-04-22T08:41:02.180Z,19.9
2023-04-22T08:42:02.115Z,19.6
2023-04-22T08:43:02.171Z,19.7
2023-04-22T08:44:02.061Z,19.5
2023-04-22T08:45:02.113Z,19.7
2023-04-22T08:46:01.968Z,20
2023-04-22T08:47:02.985Z,20.1
2023-04-22T08:48:01.381Z,19.6
2023-04-22T08:49:01.390Z,19.7
2023-04-22T08:50:02.353Z,20.3
2023-04-22T08:51:02.263Z,20.5
2023-04-22T08:52:02.361Z,20.5
2023-04-22T08:53:02.321Z,20.4
2023-04-22T08:54:02.298Z,20.2
2023-04-22T08:55:02.245Z,20.4
2023-04-22T08:56:02.282Z,20.6
2023-04-22T08:57:02.291Z,20.9
2023-04-22T08:58:02.322Z,20.6
2023-04-22T08:59:02.310Z,20.7
2023-04-22T09:00:02.230Z,20.8
2023-04-22T09:01:02.237Z,20.7
2023-04-22T09:02:02.078Z,20.8
2023-04-22T09:03:02.115Z,21
2023-04-22T09:04:02.245Z,21.2
2023-04-22T09:05:01.458Z,21.4
2023-04-22T09:06:01.476Z,21.2
2023-04-22T09:07:01.379Z,20.9
2023-04-22T09:08:01.398Z,21
2023-04-22T09:09:02.345Z,21
2023-04-22T09:10:02.233Z,20.6
2023-04-22T09:11:02.283Z,21.1
2023-04-22T09:12:02.132Z,21
2023-04-22T09:13:02.205Z,21.1
2023-04-22T09:14:02.136Z,21.4
2023-04-22T09:15:02.194Z,21.7
2023-04-22T09:16:02.128Z,21.6
2023-04-22T09:17:02.099Z,21.1
2023-04-22T09:18:02.189Z,21.2
2023-04-22T09:19:02.046Z,21
2023-04-22T09:20:02.174Z,21.1
2023-04-22T09:21:02.098Z,20.9
2023-04-22T09:22:02.176Z,21.2
2023-04-22T09:23:02.080Z,21.6
2023-04-22T09:24:02.178Z,21.6
2023-04-22T09:25:02.038Z,21.2
2023-04-22T09:26:02.043Z,21
2023-04-22T09:27:01.961Z,21.6
2023-04-22T09:28:01.904Z,21.8
2023-04-22T09:29:01.919Z,22
2023-04-22T09:30:01.784Z,22.1
2023-04-22T09:31:01.791Z,21.9
2023-04-22T09:32:01.399Z,21.9
2023-04-22T09:33:01.457Z,21.7
2023-04-22T09:34:01.381Z,22.2
2023-04-22T09:35:01.369Z,22
2023-04-22T09:36:02.387Z,22.3
2023-04-22T09:37:02.233Z,22.4
2023-04-22T09:38:02.311Z,22.6
2023-04-22T09:39:02.183Z,22.7
2023-04-22T09:40:02.250Z,22.3
2023-04-22T09:41:02.110Z,22.7
2023-04-22T09:42:02.180Z,22.3
2023-04-22T09:43:02.043Z,22.6
2023-04-22T09:44:02.106Z,22.9
2023-04-22T09:45:02.241Z,22.7
2023-04-22T09:46:02.152Z,22.4
2023-04-22T09:47:02.052Z,23.1
2023-04-22T09:48:02.190Z,22.9
2023-04-22T09:49:02.037Z,22.7
2023-04-22T09:50:02.005Z,22.6
2023-04-22T09:51:02.063Z,22.8
2023-04-22T09:52:01.911Z,22.7
2023-04-22T09:53:01.877Z,22.8
2023-04-22T09:54:01.891Z,23.1
2023-04-22T09:55:01.806Z,23.1
2023-04-22T09:56:01.728Z,23.2
2023-04-22T09:57:01.778Z,23.4
2023-04-22T09:58:01.597Z,23.5
2023-04-22T09:59:01.642Z,23.7
2023-04-22T10:00:01.788Z,23.1
2023-04-22T10:01:01.750Z,23.1
2023-04-22T10:02:01.412Z,23.4
2023-04-22T10:03:01.597Z,23.6
2023-04-22T10:04:01.691Z,23.4
2023-04-22T10:05:01.723Z,23.7
2023-04-22T10:06:01.668Z,23.8
2023-04-22T10:07:01.567Z,23.8
2023-04-22T10:08:01.479Z,23.6
2023-04-22T10:09:01.438Z,23.7
2023-04-22T10:10:01.278Z,23.3
2023-04-22T10:11:02.330Z,23.6
2023-04-22T10:12:02.209Z,23.5
2023-04-22T10:13:02.294Z,23.2
2023-04-22T10:14:02.192Z,23.4
2023-04-22T10:15:02.269Z,23.7
2023-04-22T10:16:02.153Z,24.1
2023-04-22T10:17:01.832Z,24.2
2023-04-22T10:18:01.802Z,24
2023-04-22T10:19:01.670Z,24.3
2023-04-22T10:20:01.730Z,24.2
2023-04-22T10:21:01.770Z,24.2
2023-04-22T10:22:01.695Z,24.4
2023-04-22T10:23:01.571Z,24.5
2023-04-22T10:24:01.478Z,24.3
2023-04-22T10:25:01.483Z,24.2
2023-04-22T10:26:01.390Z,23.9
2023-04-22T10:27:01.408Z,23.8
2023-04-22T10:28:02.339Z,24.1
2023-04-22T10:29:02.233Z,23.8
2023-04-22T10:30:02.349Z,24.1
2023-04-22T10:31:02.216Z,23.6
2023-04-22T10:32:01.453Z,24
2023-04-22T10:33:01.584Z,24.1
2023-04-22T10:34:01.358Z,24
2023-04-22T10:35:01.345Z,23.7
2023-04-22T10:36:02.318Z,24.2
2023-04-22T10:37:02.152Z,22.6
2023-04-22T10:38:02.193Z,23.1
2023-04-22T10:39:02.077Z,23.4
2023-04-22T10:40:02.142Z,23.2
2023-04-22T10:41:02.013Z,23.5
2023-04-22T10:42:01.962Z,23.9
2023-04-22T10:43:02.037Z,23.8
2023-04-22T10:44:01.881Z,24.1
2023-04-22T10:45:01.930Z,24
2023-04-22T10:46:01.849Z,24
2023-04-22T10:47:02.321Z,24.3
2023-04-22T10:48:02.239Z,24.3
2023-04-22T10:49:02.237Z,24.4
2023-04-22T10:50:02.158Z,24.6
2023-04-22T10:51:02.164Z,24.2
2023-04-22T10:52:02.044Z,24.1
2023-04-22T10:53:02.088Z,24
2023-04-22T10:54:01.942Z,24.3
2023-04-22T10:55:01.928Z,23.9
2023-04-22T10:56:01.978Z,24.2
2023-04-22T10:57:01.832Z,24.3
2023-04-22T10:58:01.781Z,24.5
2023-04-22T10:59:01.842Z,23.9
2023-04-22T11:00:02.386Z,24.5
2023-04-22T11:01:02.320Z,24.8
2023-04-22T11:02:01.906Z,24.6
2023-04-22T11:03:02.099Z,24.7
2023-04-22T11:04:02.138Z,24.4
2023-04-22T11:05:02.121Z,24.2
2023-04-22T11:06:02.189Z,24.4
2023-04-22T11:07:02.073Z,24.3
2023-04-22T11:08:02.100Z,24.4
2023-04-22T11:09:01.973Z,24.8
2023-04-22T11:10:01.958Z,25.2
2023-04-22T11:11:02.006Z,25
2023-04-22T11:12:01.874Z,24.8
2023-04-22T11:13:01.815Z,25.2
2023-04-22T11:14:01.825Z,25
2023-04-22T11:15:01.741Z,25.4
2023-04-22T11:16:01.806Z,25.5
2023-04-22T11:17:01.780Z,24.7
2023-04-22T11:18:01.835Z,25.5
2023-04-22T11:19:01.729Z,25.7
2023-04-22T11:20:01.753Z,25
2023-04-22T11:21:01.615Z,25.5
2023-04-22T11:22:01.665Z,25.4
2023-04-22T11:23:01.541Z,25.5
2023-04-22T11:24:01.588Z,25.5
2023-04-22T11:25:01.457Z,25.8
2023-04-22T11:26:01.433Z,26.1
2023-04-22T11:27:01.312Z,25.8
2023-04-22T11:28:02.309Z,25.7
2023-04-22T11:29:02.263Z,25.8
2023-04-22T11:30:02.305Z,24.5
2023-04-22T11:31:02.204Z,24.6
2023-04-22T11:32:01.537Z,25.2
2023-04-22T11:33:01.606Z,25.2
2023-04-22T11:34:01.387Z,24.6
2023-04-22T11:35:01.428Z,24.1
2023-04-22T11:36:01.287Z,23.4
2023-04-22T11:37:02.323Z,24.2
2023-04-22T11:38:02.258Z,24.6
2023-04-22T11:39:02.326Z,25
2023-04-22T11:40:21.291Z,24.5
2023-04-22T11:41:01.471Z,24.9
2023-04-22T11:42:01.520Z,24.2
2023-04-22T11:43:01.380Z,24.6
2023-04-22T11:44:01.449Z,24
2023-04-22T11:45:01.244Z,24.1
2023-04-22T11:46:02.366Z,24.2
2023-04-22T11:47:01.938Z,24.6
2023-04-22T11:48:02.022Z,25.1
2023-04-22T11:49:01.906Z,25.5
2023-04-22T11:50:01.817Z,25.7
2023-04-22T11:51:01.797Z,25.3
2023-04-22T11:52:01.709Z,25.2
2023-04-22T11:53:01.741Z,25.3
2023-04-22T11:54:01.611Z,25.8
2023-04-22T11:55:01.642Z,24.9
2023-04-22T11:56:01.493Z,25.2
2023-04-22T11:57:01.534Z,25.7
2023-04-22T11:58:01.495Z,25.2
2023-04-22T11:59:01.405Z,25.3
2023-04-22T12:00:01.599Z,25.8
2023-04-22T12:01:01.567Z,25.9
2023-04-22T12:02:01.361Z,26.2
2023-04-22T12:03:01.532Z,25.4
2023-04-22T12:04:01.814Z,25.6
2023-04-22T12:05:02.109Z,25.2
2023-04-22T12:06:02.209Z,24.6
2023-04-22T12:07:01.984Z,24.7
2023-04-22T12:08:02.031Z,25.3
2023-04-22T12:09:02.011Z,25.4
2023-04-22T12:10:01.853Z,25.7
2023-04-22T12:11:01.909Z,25.5
2023-04-22T12:12:01.755Z,24.8
2023-04-22T12:13:01.795Z,25.4
2023-04-22T12:14:01.668Z,26
2023-04-22T12:15:01.659Z,26.1
2023-04-22T12:16:01.505Z,26.1
2023-04-22T12:17:01.571Z,25.8
2023-04-22T12:18:01.572Z,26.2
2023-04-22T12:19:01.396Z,26.2
2023-04-22T12:20:01.460Z,25.6
2023-04-22T12:21:01.314Z,25.2
2023-04-22T12:22:02.391Z,24.3
2023-04-22T12:23:02.227Z,24.4
2023-04-22T12:24:02.306Z,24.1
2023-04-22T12:25:02.181Z,24.5
2023-04-22T12:26:02.154Z,24.6
2023-04-22T12:27:02.055Z,24.6
2023-04-22T12:28:02.083Z,24.9
2023-04-22T12:29:01.952Z,25.4
2023-04-22T12:30:01.924Z,25.5
2023-04-22T12:31:01.966Z,25.2
2023-04-22T12:32:01.836Z,24.6
2023-04-22T12:33:01.753Z,24.9
2023-04-22T12:34:01.808Z,25
2023-04-22T12:35:01.725Z,25.2
2023-04-22T12:36:01.693Z,25.5
2023-04-22T12:37:01.581Z,25.1
2023-04-22T12:38:01.668Z,25.3
2023-04-22T12:39:01.492Z,25.1
2023-04-22T12:40:01.489Z,25
2023-04-22T12:41:01.358Z,24.1
2023-04-22T12:42:01.375Z,23.6
2023-04-22T12:43:02.333Z,23.9
2023-04-22T12:44:02.283Z,24.4
2023-04-22T12:45:02.300Z,24.9
2023-04-22T12:46:01.850Z,24.6
2023-04-22T12:47:02.014Z,24.6
2023-04-22T12:48:01.750Z,25.3
2023-04-22T12:49:01.834Z,25
2023-04-22T12:50:01.681Z,25.1
2023-04-22T12:51:01.745Z,25.2
2023-04-22T12:52:01.583Z,25.8
2023-04-22T12:53:01.652Z,25.9
2023-04-22T12:54:01.547Z,24.9
2023-04-22T12:55:01.532Z,24.1
2023-04-22T12:56:01.420Z,24.4
2023-04-22T12:57:01.469Z,25.2
2023-04-22T12:58:01.321Z,25.4
2023-04-22T12:59:02.388Z,25.5
2023-04-22T13:00:02.355Z,25.5
2023-04-22T13:01:01.942Z,25.7
2023-04-22T13:02:02.010Z,26
2023-04-22T13:03:01.903Z,25.6
2023-04-22T13:04:02.080Z,26.2
2023-04-22T13:05:01.815Z,26.4
2023-04-22T13:06:01.663Z,26.5
2023-04-22T13:07:01.698Z,26.9
2023-04-22T13:08:06.852Z,27.1
2023-04-22T13:09:01.874Z,26.9
2023-04-22T13:10:01.925Z,26.9
2023-04-22T13:11:01.774Z,26.6
2023-04-22T13:12:01.803Z,26.4
2023-04-22T13:13:15.728Z,26.4
2023-04-22T13:14:02.093Z,26.2
2023-04-22T13:15:02.188Z,26.1
2023-04-22T13:16:01.606Z,26
2023-04-22T13:17:01.654Z,25.7
2023-04-22T13:18:01.565Z,25.6
2023-04-22T13:19:01.553Z,25.4
2023-04-22T13:20:01.430Z,25.5
2023-04-22T13:21:01.459Z,25.7
2023-04-22T13:22:01.317Z,26.1
2023-04-22T13:23:02.452Z,25.5
2023-04-22T13:24:02.236Z,25.3
2023-04-22T13:25:02.295Z,25.9
2023-04-22T13:26:02.181Z,25.7